sensor_id;sensor_type;location;lat;lon;timestamp;temperature;humidity
69715;HTU21D;56981;53.532;49.398;2023-11-19T00:00:35;-4.31;79.29
69715;HTU21D;56981;53.532;49.398;2023-11-19T00:03:01;-4.27;78.83
69715;HTU21D;56981;53.532;49.398;2023-11-19T00:05:27;-4.30;79.49
69715;HTU21D;56981;53.532;49.398;2023-11-19T00:07:53;-4.32;79.04
69715;HTU21D;56981;53.532;49.398;2023-11-19T00:10:19;-4.32;79.64
69715;HTU21D;56981;53.532;49.398;2023-11-19T00:12:48;-4.37;79.65
69715;HTU21D;56981;53.532;49.398;2023-11-19T00:15:15;-4.34;79.83
69715;HTU21D;56981;53.532;49.398;2023-11-19T00:17:47;-4.32;79.64
69715;HTU21D;56981;53.532;49.398;2023-11-19T00:20:15;-4.28;80.10
69715;HTU21D;56981;53.532;49.398;2023-11-19T00:22:42;-4.37;79.56
69715;HTU21D;56981;53.532;49.398;2023-11-19T00:25:09;-4.44;80.01
69715;HTU21D;56981;53.532;49.398;2023-11-19T00:27:36;-4.45;80.18
69715;HTU21D;56981;53.532;49.398;2023-11-19T00:30:04;-4.45;80.34
69715;HTU21D;56981;53.532;49.398;2023-11-19T00:32:32;-4.36;79.21
69715;HTU21D;56981;53.532;49.398;2023-11-19T00:34:58;-4.39;79.87
69715;HTU21D;56981;53.532;49.398;2023-11-19T00:37:24;-4.50;80.64
69715;HTU21D;56981;53.532;49.398;2023-11-19T00:39:50;-4.50;80.57
69715;HTU21D;56981;53.532;49.398;2023-11-19T00:42:17;-4.58;80.17
69715;HTU21D;56981;53.532;49.398;2023-11-19T00:44:43;-4.72;81.37
69715;HTU21D;56981;53.532;49.398;2023-11-19T00:47:10;-4.89;82.19
69715;HTU21D;56981;53.532;49.398;2023-11-19T00:49:36;-4.97;82.78
69715;HTU21D;56981;53.532;49.398;2023-11-19T00:52:02;-5.02;83.07
69715;HTU21D;56981;53.532;49.398;2023-11-19T00:54:28;-5.11;83.23
69715;HTU21D;56981;53.532;49.398;2023-11-19T00:56:55;-5.22;82.76
69715;HTU21D;56981;53.532;49.398;2023-11-19T00:59:21;-5.18;82.91
69715;HTU21D;56981;53.532;49.398;2023-11-19T01:01:47;-5.17;82.45
69715;HTU21D;56981;53.532;49.398;2023-11-19T01:04:17;-5.13;82.20
69715;HTU21D;56981;53.532;49.398;2023-11-19T01:06:43;-5.22;82.28
69715;HTU21D;56981;53.532;49.398;2023-11-19T01:09:09;-5.26;82.74
69715;HTU21D;56981;53.532;49.398;2023-11-19T01:11:35;-5.27;82.57
69715;HTU21D;56981;53.532;49.398;2023-11-19T01:14:01;-5.26;82.17
69715;HTU21D;56981;53.532;49.398;2023-11-19T01:16:27;-5.28;82.55
69715;HTU21D;56981;53.532;49.398;2023-11-19T01:18:53;-5.35;82.88
69715;HTU21D;56981;53.532;49.398;2023-11-19T01:21:20;-5.41;83.49
69715;HTU21D;56981;53.532;49.398;2023-11-19T01:23:46;-5.43;83.50
69715;HTU21D;56981;53.532;49.398;2023-11-19T01:26:12;-5.53;83.59
69715;HTU21D;56981;53.532;49.398;2023-11-19T01:28:39;-5.56;83.89
69715;HTU21D;56981;53.532;49.398;2023-11-19T01:31:05;-5.59;83.74
69715;HTU21D;56981;53.532;49.398;2023-11-19T01:33:36;-5.64;84.09
69715;HTU21D;56981;53.532;49.398;2023-11-19T01:36:02;-5.68;84.48
69715;HTU21D;56981;53.532;49.398;2023-11-19T01:38:30;-5.59;84.46
69715;HTU21D;56981;53.532;49.398;2023-11-19T01:40:57;-5.50;84.37
69715;HTU21D;56981;53.532;49.398;2023-11-19T01:45:59;-5.46;83.89
69715;HTU21D;56981;53.532;49.398;2023-11-19T01:48:25;-5.46;83.69
69715;HTU21D;56981;53.532;49.398;2023-11-19T01:50:53;-5.50;83.55
69715;HTU21D;56981;53.532;49.398;2023-11-19T01:53:19;-5.50;83.78
69715;HTU21D;56981;53.532;49.398;2023-11-19T01:55:47;-5.49;83.37
69715;HTU21D;56981;53.532;49.398;2023-11-19T01:58:13;-5.49;83.12
69715;HTU21D;56981;53.532;49.398;2023-11-19T02:00:40;-5.49;83.14
69715;HTU21D;56981;53.532;49.398;2023-11-19T02:03:07;-5.53;83.23
69715;HTU21D;56981;53.532;49.398;2023-11-19T02:05:36;-5.64;83.07
69715;HTU21D;56981;53.532;49.398;2023-11-19T02:08:07;-5.60;83.58
69715;HTU21D;56981;53.532;49.398;2023-11-19T02:10:33;-5.54;83.18
69715;HTU21D;56981;53.532;49.398;2023-11-19T02:13:00;-5.48;82.89
69715;HTU21D;56981;53.532;49.398;2023-11-19T02:15:27;-5.54;83.38
69715;HTU21D;56981;53.532;49.398;2023-11-19T02:17:53;-5.60;83.42
69715;HTU21D;56981;53.532;49.398;2023-11-19T02:20:20;-5.67;83.67
69715;HTU21D;56981;53.532;49.398;2023-11-19T02:22:49;-5.70;83.71
69715;HTU21D;56981;53.532;49.398;2023-11-19T02:25:28;-5.72;83.61
69715;HTU21D;56981;53.532;49.398;2023-11-19T02:27:57;-5.72;83.68
69715;HTU21D;56981;53.532;49.398;2023-11-19T02:30:25;-5.75;83.79
69715;HTU21D;56981;53.532;49.398;2023-11-19T02:32:55;-5.71;83.64
69715;HTU21D;56981;53.532;49.398;2023-11-19T02:35:27;-5.68;83.29
69715;HTU21D;56981;53.532;49.398;2023-11-19T02:37:54;-5.62;83.42
69715;HTU21D;56981;53.532;49.398;2023-11-19T02:40:20;-5.72;83.16
69715;HTU21D;56981;53.532;49.398;2023-11-19T02:42:50;-5.75;83.48
69715;HTU21D;56981;53.532;49.398;2023-11-19T02:45:16;-5.81;83.58
69715;HTU21D;56981;53.532;49.398;2023-11-19T02:47:43;-5.87;83.54
69715;HTU21D;56981;53.532;49.398;2023-11-19T02:50:11;-5.92;83.87
69715;HTU21D;56981;53.532;49.398;2023-11-19T02:52:44;-5.93;84.10
69715;HTU21D;56981;53.532;49.398;2023-11-19T02:55:12;-5.90;83.71
69715;HTU21D;56981;53.532;49.398;2023-11-19T02:57:41;-5.88;84.05
69715;HTU21D;56981;53.532;49.398;2023-11-19T03:00:20;-5.89;84.03
69715;HTU21D;56981;53.532;49.398;2023-11-19T03:02:50;-5.94;84.11
69715;HTU21D;56981;53.532;49.398;2023-11-19T03:05:26;-5.98;84.16
69715;HTU21D;56981;53.532;49.398;2023-11-19T03:07:52;-5.96;84.01
69715;HTU21D;56981;53.532;49.398;2023-11-19T03:10:18;-5.99;83.96
69715;HTU21D;56981;53.532;49.398;2023-11-19T03:12:44;-6.09;84.11
69715;HTU21D;56981;53.532;49.398;2023-11-19T03:15:11;-6.28;84.28
69715;HTU21D;56981;53.532;49.398;2023-11-19T03:17:41;-6.39;84.96
69715;HTU21D;56981;53.532;49.398;2023-11-19T03:20:09;-6.49;85.43
69715;HTU21D;56981;53.532;49.398;2023-11-19T03:22:37;-6.48;85.64
69715;HTU21D;56981;53.532;49.398;2023-11-19T03:25:04;-6.51;85.67
69715;HTU21D;56981;53.532;49.398;2023-11-19T03:27:30;-6.50;85.94
69715;HTU21D;56981;53.532;49.398;2023-11-19T03:29:57;-6.49;85.94
69715;HTU21D;56981;53.532;49.398;2023-11-19T03:32:23;-6.44;85.73
69715;HTU21D;56981;53.532;49.398;2023-11-19T03:34:49;-6.48;85.29
69715;HTU21D;56981;53.532;49.398;2023-11-19T03:37:15;-6.51;85.26
69715;HTU21D;56981;53.532;49.398;2023-11-19T03:39:43;-6.56;85.32
69715;HTU21D;56981;53.532;49.398;2023-11-19T03:42:09;-6.60;85.62
69715;HTU21D;56981;53.532;49.398;2023-11-19T03:44:35;-6.56;85.51
69715;HTU21D;56981;53.532;49.398;2023-11-19T03:47:01;-6.49;85.42
69715;HTU21D;56981;53.532;49.398;2023-11-19T03:49:27;-6.47;84.95
69715;HTU21D;56981;53.532;49.398;2023-11-19T03:51:53;-6.47;85.13
69715;HTU21D;56981;53.532;49.398;2023-11-19T03:54:19;-6.49;85.15
69715;HTU21D;56981;53.532;49.398;2023-11-19T03:56:47;-6.50;84.87
69715;HTU21D;56981;53.532;49.398;2023-11-19T03:59:13;-6.49;85.10
69715;HTU21D;56981;53.532;49.398;2023-11-19T04:01:39;-6.52;84.70
69715;HTU21D;56981;53.532;49.398;2023-11-19T04:04:05;-6.53;84.90
69715;HTU21D;56981;53.532;49.398;2023-11-19T04:06:31;-6.55;84.72
69715;HTU21D;56981;53.532;49.398;2023-11-19T04:08:57;-6.51;84.97
69715;HTU21D;56981;53.532;49.398;2023-11-19T04:11:23;-6.51;84.85
69715;HTU21D;56981;53.532;49.398;2023-11-19T04:13:49;-6.51;84.88
69715;HTU21D;56981;53.532;49.398;2023-11-19T04:16:15;-6.51;84.63
69715;HTU21D;56981;53.532;49.398;2023-11-19T04:18:41;-6.48;84.66
69715;HTU21D;56981;53.532;49.398;2023-11-19T04:21:07;-6.45;84.47
69715;HTU21D;56981;53.532;49.398;2023-11-19T04:23:33;-6.41;84.19
69715;HTU21D;56981;53.532;49.398;2023-11-19T04:26:03;-6.36;84.10
69715;HTU21D;56981;53.532;49.398;2023-11-19T04:28:30;-6.34;84.03
69715;HTU21D;56981;53.532;49.398;2023-11-19T04:30:56;-6.31;83.43
69715;HTU21D;56981;53.532;49.398;2023-11-19T04:33:22;-6.24;83.97
69715;HTU21D;56981;53.532;49.398;2023-11-19T04:35:48;-6.14;83.60
69715;HTU21D;56981;53.532;49.398;2023-11-19T04:38:14;-6.03;83.26
69715;HTU21D;56981;53.532;49.398;2023-11-19T04:40:40;-5.88;83.10
69715;HTU21D;56981;53.532;49.398;2023-11-19T04:43:07;-5.64;83.32
69715;HTU21D;56981;53.532;49.398;2023-11-19T04:45:33;-5.43;81.87
69715;HTU21D;56981;53.532;49.398;2023-11-19T04:48:00;-5.27;81.42
69715;HTU21D;56981;53.532;49.398;2023-11-19T04:50:26;-5.13;81.10
69715;HTU21D;56981;53.532;49.398;2023-11-19T04:52:53;-5.08;80.17
69715;HTU21D;56981;53.532;49.398;2023-11-19T04:55:20;-5.07;79.53
69715;HTU21D;56981;53.532;49.398;2023-11-19T04:57:46;-5.09;79.41
69715;HTU21D;56981;53.532;49.398;2023-11-19T05:00:12;-5.08;79.16
69715;HTU21D;56981;53.532;49.398;2023-11-19T05:02:39;-5.08;79.52
69715;HTU21D;56981;53.532;49.398;2023-11-19T05:05:05;-5.09;79.96
69715;HTU21D;56981;53.532;49.398;2023-11-19T05:07:31;-5.03;80.12
69715;HTU21D;56981;53.532;49.398;2023-11-19T05:09:57;-4.96;79.85
69715;HTU21D;56981;53.532;49.398;2023-11-19T05:12:24;-4.97;79.89
69715;HTU21D;56981;53.532;49.398;2023-11-19T05:14:50;-4.56;77.69
69715;HTU21D;56981;53.532;49.398;2023-11-19T05:17:19;-3.37;76.65
69715;HTU21D;56981;53.532;49.398;2023-11-19T05:19:45;-2.39;69.87
69715;HTU21D;56981;53.532;49.398;2023-11-19T05:22:12;-2.19;68.65
69715;HTU21D;56981;53.532;49.398;2023-11-19T05:24:38;-1.46;65.66
69715;HTU21D;56981;53.532;49.398;2023-11-19T05:27:05;-1.16;64.81
69715;HTU21D;56981;53.532;49.398;2023-11-19T05:29:32;-0.75;62.85
69715;HTU21D;56981;53.532;49.398;2023-11-19T05:31:58;-1.38;65.01
69715;HTU21D;56981;53.532;49.398;2023-11-19T05:34:24;-1.19;65.07
69715;HTU21D;56981;53.532;49.398;2023-11-19T05:36:50;-1.44;65.00
69715;HTU21D;56981;53.532;49.398;2023-11-19T05:39:17;-1.68;67.45
69715;HTU21D;56981;53.532;49.398;2023-11-19T05:41:46;-2.21;67.84
69715;HTU21D;56981;53.532;49.398;2023-11-19T05:44:12;-2.78;70.42
69715;HTU21D;56981;53.532;49.398;2023-11-19T05:46:38;-3.02;71.76
69715;HTU21D;56981;53.532;49.398;2023-11-19T05:49:08;-2.89;71.76
69715;HTU21D;56981;53.532;49.398;2023-11-19T05:51:38;-2.47;70.86
69715;HTU21D;56981;53.532;49.398;2023-11-19T05:54:06;-2.63;71.36
69715;HTU21D;56981;53.532;49.398;2023-11-19T05:56:33;-2.66;71.24
69715;HTU21D;56981;53.532;49.398;2023-11-19T05:58:59;-2.58;71.64
69715;HTU21D;56981;53.532;49.398;2023-11-19T06:01:42;-2.34;72.02
69715;HTU21D;56981;53.532;49.398;2023-11-19T06:04:08;-2.28;71.22
69715;HTU21D;56981;53.532;49.398;2023-11-19T06:06:34;-2.02;71.20
69715;HTU21D;56981;53.532;49.398;2023-11-19T06:09:03;-2.02;70.90
69715;HTU21D;56981;53.532;49.398;2023-11-19T06:11:30;-1.93;71.19
69715;HTU21D;56981;53.532;49.398;2023-11-19T06:13:56;-1.92;71.24
69715;HTU21D;56981;53.532;49.398;2023-11-19T06:16:23;-1.99;71.45
69715;HTU21D;56981;53.532;49.398;2023-11-19T06:18:49;-1.98;71.74
69715;HTU21D;56981;53.532;49.398;2023-11-19T06:21:15;-2.19;71.69
69715;HTU21D;56981;53.532;49.398;2023-11-19T06:23:41;-2.35;73.10
69715;HTU21D;56981;53.532;49.398;2023-11-19T06:26:08;-2.23;73.17
69715;HTU21D;56981;53.532;49.398;2023-11-19T06:28:36;-2.20;72.74
69715;HTU21D;56981;53.532;49.398;2023-11-19T06:31:03;-2.33;71.15
69715;HTU21D;56981;53.532;49.398;2023-11-19T06:33:29;-2.56;71.29
69715;HTU21D;56981;53.532;49.398;2023-11-19T06:35:55;-2.80;72.41
69715;HTU21D;56981;53.532;49.398;2023-11-19T06:38:21;-2.87;73.71
69715;HTU21D;56981;53.532;49.398;2023-11-19T06:40:47;-2.94;73.86
69715;HTU21D;56981;53.532;49.398;2023-11-19T06:43:14;-2.94;74.46
69715;HTU21D;56981;53.532;49.398;2023-11-19T06:45:41;-3.03;74.67
69715;HTU21D;56981;53.532;49.398;2023-11-19T06:48:07;-3.10;74.07
69715;HTU21D;56981;53.532;49.398;2023-11-19T06:50:33;-3.18;74.62
69715;HTU21D;56981;53.532;49.398;2023-11-19T06:52:59;-3.17;74.30
69715;HTU21D;56981;53.532;49.398;2023-11-19T06:55:26;-3.03;75.01
69715;HTU21D;56981;53.532;49.398;2023-11-19T06:57:52;-2.90;74.48
69715;HTU21D;56981;53.532;49.398;2023-11-19T07:00:19;-2.98;73.89
69715;HTU21D;56981;53.532;49.398;2023-11-19T07:02:50;-2.87;74.21
69715;HTU21D;56981;53.532;49.398;2023-11-19T07:05:16;-2.81;74.84
69715;HTU21D;56981;53.532;49.398;2023-11-19T07:07:58;-2.95;71.88
69715;HTU21D;56981;53.532;49.398;2023-11-19T07:10:44;-2.86;72.01
69715;HTU21D;56981;53.532;49.398;2023-11-19T07:13:09;-2.93;72.63
69715;HTU21D;56981;53.532;49.398;2023-11-19T07:15:35;-2.98;72.59
69715;HTU21D;56981;53.532;49.398;2023-11-19T07:18:01;-2.94;71.90
69715;HTU21D;56981;53.532;49.398;2023-11-19T07:20:27;-2.87;71.23
69715;HTU21D;56981;53.532;49.398;2023-11-19T07:22:54;-2.80;72.56
69715;HTU21D;56981;53.532;49.398;2023-11-19T07:25:22;-2.61;72.16
69715;HTU21D;56981;53.532;49.398;2023-11-19T07:27:49;-2.82;70.90
69715;HTU21D;56981;53.532;49.398;2023-11-19T07:30:15;-2.75;71.45
69715;HTU21D;56981;53.532;49.398;2023-11-19T07:32:41;-2.78;71.49
69715;HTU21D;56981;53.532;49.398;2023-11-19T07:35:07;-2.64;71.94
69715;HTU21D;56981;53.532;49.398;2023-11-19T07:37:33;-2.74;71.61
69715;HTU21D;56981;53.532;49.398;2023-11-19T07:39:59;-2.78;71.74
69715;HTU21D;56981;53.532;49.398;2023-11-19T07:42:25;-2.81;70.84
69715;HTU21D;56981;53.532;49.398;2023-11-19T07:44:51;-2.66;70.18
69715;HTU21D;56981;53.532;49.398;2023-11-19T07:47:18;-2.64;70.13
69715;HTU21D;56981;53.532;49.398;2023-11-19T07:49:44;-2.58;69.07
69715;HTU21D;56981;53.532;49.398;2023-11-19T07:52:11;-2.64;69.84
69715;HTU21D;56981;53.532;49.398;2023-11-19T07:54:37;-2.50;69.65
69715;HTU21D;56981;53.532;49.398;2023-11-19T07:57:04;-2.53;67.81
69715;HTU21D;56981;53.532;49.398;2023-11-19T07:59:30;-2.43;68.04
69715;HTU21D;56981;53.532;49.398;2023-11-19T08:01:56;-2.38;67.87
69715;HTU21D;56981;53.532;49.398;2023-11-19T08:04:23;-2.38;69.65
69715;HTU21D;56981;53.532;49.398;2023-11-19T08:06:50;-2.28;68.99
69715;HTU21D;56981;53.532;49.398;2023-11-19T08:09:16;-2.27;67.77
69715;HTU21D;56981;53.532;49.398;2023-11-19T08:11:42;-2.31;67.43
69715;HTU21D;56981;53.532;49.398;2023-11-19T08:14:11;-2.21;67.71
69715;HTU21D;56981;53.532;49.398;2023-11-19T08:16:39;-2.14;67.04
69715;HTU21D;56981;53.532;49.398;2023-11-19T08:19:05;-2.17;67.38
69715;HTU21D;56981;53.532;49.398;2023-11-19T08:21:32;-2.20;67.05
69715;HTU21D;56981;53.532;49.398;2023-11-19T08:24:00;-2.15;66.57
69715;HTU21D;56981;53.532;49.398;2023-11-19T08:26:26;-2.15;66.97
69715;HTU21D;56981;53.532;49.398;2023-11-19T08:28:52;-2.23;66.85
69715;HTU21D;56981;53.532;49.398;2023-11-19T08:31:19;-2.32;67.24
69715;HTU21D;56981;53.532;49.398;2023-11-19T08:33:45;-2.32;67.14
69715;HTU21D;56981;53.532;49.398;2023-11-19T08:36:17;-2.24;66.79
69715;HTU21D;56981;53.532;49.398;2023-11-19T08:38:43;-2.10;66.21
69715;HTU21D;56981;53.532;49.398;2023-11-19T08:41:09;-2.32;66.81
69715;HTU21D;56981;53.532;49.398;2023-11-19T08:43:36;-2.33;67.10
69715;HTU21D;56981;53.532;49.398;2023-11-19T08:46:03;-2.28;67.10
69715;HTU21D;56981;53.532;49.398;2023-11-19T08:48:30;-2.26;67.49
69715;HTU21D;56981;53.532;49.398;2023-11-19T08:50:56;-2.27;67.36
69715;HTU21D;56981;53.532;49.398;2023-11-19T08:53:22;-2.27;67.92
69715;HTU21D;56981;53.532;49.398;2023-11-19T08:55:48;-2.28;68.33
69715;HTU21D;56981;53.532;49.398;2023-11-19T08:58:15;-2.27;68.05
69715;HTU21D;56981;53.532;49.398;2023-11-19T09:00:42;-2.42;67.66
69715;HTU21D;56981;53.532;49.398;2023-11-19T09:03:08;-2.38;68.15
69715;HTU21D;56981;53.532;49.398;2023-11-19T09:05:35;-2.58;68.41
69715;HTU21D;56981;53.532;49.398;2023-11-19T09:08:02;-2.71;68.99
69715;HTU21D;56981;53.532;49.398;2023-11-19T09:10:28;-2.83;69.33
69715;HTU21D;56981;53.532;49.398;2023-11-19T09:13:00;-2.91;70.29
69715;HTU21D;56981;53.532;49.398;2023-11-19T09:15:26;-2.88;69.90
69715;HTU21D;56981;53.532;49.398;2023-11-19T09:17:53;-2.94;70.11
69715;HTU21D;56981;53.532;49.398;2023-11-19T09:20:19;-3.04;70.72
69715;HTU21D;56981;53.532;49.398;2023-11-19T09:22:45;-2.97;70.26
69715;HTU21D;56981;53.532;49.398;2023-11-19T09:25:12;-2.97;70.42
69715;HTU21D;56981;53.532;49.398;2023-11-19T09:27:43;-2.94;70.36
69715;HTU21D;56981;53.532;49.398;2023-11-19T09:30:10;-2.87;69.69
69715;HTU21D;56981;53.532;49.398;2023-11-19T09:32:36;-3.05;70.23
69715;HTU21D;56981;53.532;49.398;2023-11-19T09:35:03;-3.16;70.68
69715;HTU21D;56981;53.532;49.398;2023-11-19T09:37:30;-3.30;71.64
69715;HTU21D;56981;53.532;49.398;2023-11-19T09:39:56;-3.22;71.61
69715;HTU21D;56981;53.532;49.398;2023-11-19T09:42:23;-3.25;71.23
69715;HTU21D;56981;53.532;49.398;2023-11-19T09:44:50;-3.24;71.31
69715;HTU21D;56981;53.532;49.398;2023-11-19T09:47:17;-3.24;71.10
69715;HTU21D;56981;53.532;49.398;2023-11-19T09:49:45;-3.19;71.71
69715;HTU21D;56981;53.532;49.398;2023-11-19T09:52:11;-3.09;71.03
69715;HTU21D;56981;53.532;49.398;2023-11-19T09:54:37;-3.05;71.62
69715;HTU21D;56981;53.532;49.398;2023-11-19T09:57:04;-3.06;70.68
69715;HTU21D;56981;53.532;49.398;2023-11-19T09:59:33;-2.98;71.06
69715;HTU21D;56981;53.532;49.398;2023-11-19T10:01:59;-2.91;70.88
69715;HTU21D;56981;53.532;49.398;2023-11-19T10:04:30;-2.80;70.94
69715;HTU21D;56981;53.532;49.398;2023-11-19T10:06:57;-2.79;69.61
69715;HTU21D;56981;53.532;49.398;2023-11-19T10:09:23;-2.67;70.42
69715;HTU21D;56981;53.532;49.398;2023-11-19T10:11:49;-2.50;69.89
69715;HTU21D;56981;53.532;49.398;2023-11-19T10:14:16;-2.41;69.22
69715;HTU21D;56981;53.532;49.398;2023-11-19T10:16:45;-2.49;69.40
69715;HTU21D;56981;53.532;49.398;2023-11-19T10:19:19;-2.56;68.44
69715;HTU21D;56981;53.532;49.398;2023-11-19T10:21:48;-2.60;69.16
69715;HTU21D;56981;53.532;49.398;2023-11-19T10:24:14;-2.60;69.21
69715;HTU21D;56981;53.532;49.398;2023-11-19T10:26:40;-2.58;69.55
69715;HTU21D;56981;53.532;49.398;2023-11-19T10:29:07;-2.54;70.01
69715;HTU21D;56981;53.532;49.398;2023-11-19T10:31:33;-2.49;69.85
69715;HTU21D;56981;53.532;49.398;2023-11-19T10:33:59;-2.43;70.00
69715;HTU21D;56981;53.532;49.398;2023-11-19T10:36:44;-2.47;69.61
69715;HTU21D;56981;53.532;49.398;2023-11-19T10:39:10;-2.38;69.62
69715;HTU21D;56981;53.532;49.398;2023-11-19T10:41:36;-2.48;69.83
69715;HTU21D;56981;53.532;49.398;2023-11-19T10:44:02;-2.52;69.49
69715;HTU21D;56981;53.532;49.398;2023-11-19T10:46:39;-2.57;69.23
69715;HTU21D;56981;53.532;49.398;2023-11-19T10:49:07;-2.57;69.10
69715;HTU21D;56981;53.532;49.398;2023-11-19T10:51:33;-2.59;68.58
69715;HTU21D;56981;53.532;49.398;2023-11-19T10:54:04;-2.65;69.65
69715;HTU21D;56981;53.532;49.398;2023-11-19T10:56:34;-2.64;69.04
69715;HTU21D;56981;53.532;49.398;2023-11-19T10:59:00;-2.64;69.38
69715;HTU21D;56981;53.532;49.398;2023-11-19T11:01:32;-2.68;68.89
69715;HTU21D;56981;53.532;49.398;2023-11-19T11:04:02;-2.78;69.20
69715;HTU21D;56981;53.532;49.398;2023-11-19T11:06:29;-2.87;69.24
69715;HTU21D;56981;53.532;49.398;2023-11-19T11:08:56;-2.81;69.22
69715;HTU21D;56981;53.532;49.398;2023-11-19T11:11:23;-2.86;69.52
69715;HTU21D;56981;53.532;49.398;2023-11-19T11:13:50;-2.92;69.33
69715;HTU21D;56981;53.532;49.398;2023-11-19T11:16:20;-2.88;69.81
69715;HTU21D;56981;53.532;49.398;2023-11-19T11:18:47;-2.83;69.98
69715;HTU21D;56981;53.532;49.398;2023-11-19T11:21:21;-2.97;69.25
69715;HTU21D;56981;53.532;49.398;2023-11-19T11:29:41;-3.16;69.48
69715;HTU21D;56981;53.532;49.398;2023-11-19T11:35:06;-3.31;69.62
69715;HTU21D;56981;53.532;49.398;2023-11-19T11:37:47;-3.38;70.19
69715;HTU21D;56981;53.532;49.398;2023-11-19T11:40:16;-3.42;70.24
69715;HTU21D;56981;53.532;49.398;2023-11-19T11:42:44;-3.50;71.00
69715;HTU21D;56981;53.532;49.398;2023-11-19T11:45:14;-3.60;70.66
69715;HTU21D;56981;53.532;49.398;2023-11-19T11:50:14;-3.86;71.88
69715;HTU21D;56981;53.532;49.398;2023-11-19T11:55:35;-3.83;71.82
69715;HTU21D;56981;53.532;49.398;2023-11-19T11:58:05;-3.81;71.70
69715;HTU21D;56981;53.532;49.398;2023-11-19T12:00:41;-3.90;72.05
69715;HTU21D;56981;53.532;49.398;2023-11-19T12:03:11;-3.95;72.67
69715;HTU21D;56981;53.532;49.398;2023-11-19T12:05:44;-4.13;72.93
69715;HTU21D;56981;53.532;49.398;2023-11-19T12:08:15;-4.22;73.35
69715;HTU21D;56981;53.532;49.398;2023-11-19T12:10:49;-4.23;73.53
69715;HTU21D;56981;53.532;49.398;2023-11-19T12:13:17;-4.32;73.93
69715;HTU21D;56981;53.532;49.398;2023-11-19T12:18:26;-4.31;73.86
69715;HTU21D;56981;53.532;49.398;2023-11-19T12:20:56;-4.40;74.05
69715;HTU21D;56981;53.532;49.398;2023-11-19T12:23:23;-4.40;74.46
69715;HTU21D;56981;53.532;49.398;2023-11-19T12:25:49;-4.46;74.30
69715;HTU21D;56981;53.532;49.398;2023-11-19T12:28:16;-4.55;74.85
69715;HTU21D;56981;53.532;49.398;2023-11-19T12:30:48;-4.59;75.34
69715;HTU21D;56981;53.532;49.398;2023-11-19T12:33:14;-4.63;74.89
69715;HTU21D;56981;53.532;49.398;2023-11-19T12:35:46;-4.65;75.51
69715;HTU21D;56981;53.532;49.398;2023-11-19T12:38:23;-4.61;74.89
69715;HTU21D;56981;53.532;49.398;2023-11-19T12:41:06;-4.60;74.92
69715;HTU21D;56981;53.532;49.398;2023-11-19T12:43:35;-4.58;74.98
69715;HTU21D;56981;53.532;49.398;2023-11-19T12:46:22;-4.60;74.70
69715;HTU21D;56981;53.532;49.398;2023-11-19T12:48:49;-4.58;74.88
69715;HTU21D;56981;53.532;49.398;2023-11-19T12:51:16;-4.60;75.22
69715;HTU21D;56981;53.532;49.398;2023-11-19T12:53:50;-4.67;75.48
69715;HTU21D;56981;53.532;49.398;2023-11-19T12:56:18;-4.68;75.28
69715;HTU21D;56981;53.532;49.398;2023-11-19T12:58:44;-4.70;75.12
69715;HTU21D;56981;53.532;49.398;2023-11-19T13:01:19;-4.73;75.03
69715;HTU21D;56981;53.532;49.398;2023-11-19T13:03:46;-4.78;75.76
69715;HTU21D;56981;53.532;49.398;2023-11-19T13:06:14;-4.82;75.38
69715;HTU21D;56981;53.532;49.398;2023-11-19T13:08:49;-4.83;75.70
69715;HTU21D;56981;53.532;49.398;2023-11-19T13:11:35;-4.82;75.56
69715;HTU21D;56981;53.532;49.398;2023-11-19T13:14:06;-4.80;75.64
69715;HTU21D;56981;53.532;49.398;2023-11-19T13:16:38;-4.75;75.25
69715;HTU21D;56981;53.532;49.398;2023-11-19T13:19:08;-4.74;75.32
69715;HTU21D;56981;53.532;49.398;2023-11-19T13:21:37;-4.72;75.20
69715;HTU21D;56981;53.532;49.398;2023-11-19T13:24:08;-4.79;75.17
69715;HTU21D;56981;53.532;49.398;2023-11-19T13:26:34;-4.81;75.88
69715;HTU21D;56981;53.532;49.398;2023-11-19T13:29:00;-4.86;75.74
69715;HTU21D;56981;53.532;49.398;2023-11-19T13:31:27;-4.93;75.99
69715;HTU21D;56981;53.532;49.398;2023-11-19T13:33:56;-4.95;76.20
69715;HTU21D;56981;53.532;49.398;2023-11-19T13:36:24;-5.01;76.95
69715;HTU21D;56981;53.532;49.398;2023-11-19T13:38:51;-5.05;76.86
69715;HTU21D;56981;53.532;49.398;2023-11-19T13:41:25;-5.12;77.27
69715;HTU21D;56981;53.532;49.398;2023-11-19T13:43:51;-5.20;77.55
69715;HTU21D;56981;53.532;49.398;2023-11-19T13:46:17;-5.19;77.66
69715;HTU21D;56981;53.532;49.398;2023-11-19T13:48:44;-5.23;77.95
69715;HTU21D;56981;53.532;49.398;2023-11-19T13:51:10;-5.28;77.87
69715;HTU21D;56981;53.532;49.398;2023-11-19T13:53:36;-5.30;78.14
69715;HTU21D;56981;53.532;49.398;2023-11-19T13:56:03;-5.29;78.14
69715;HTU21D;56981;53.532;49.398;2023-11-19T13:58:29;-5.32;78.30
69715;HTU21D;56981;53.532;49.398;2023-11-19T14:00:55;-5.37;78.85
69715;HTU21D;56981;53.532;49.398;2023-11-19T14:03:21;-5.45;79.08
69715;HTU21D;56981;53.532;49.398;2023-11-19T14:05:47;-5.54;79.36
69715;HTU21D;56981;53.532;49.398;2023-11-19T14:08:15;-5.65;80.02
69715;HTU21D;56981;53.532;49.398;2023-11-19T14:10:41;-5.74;80.41
69715;HTU21D;56981;53.532;49.398;2023-11-19T14:13:07;-5.79;80.37
69715;HTU21D;56981;53.532;49.398;2023-11-19T14:15:33;-5.89;80.74
69715;HTU21D;56981;53.532;49.398;2023-11-19T14:18:00;-5.92;80.95
69715;HTU21D;56981;53.532;49.398;2023-11-19T14:20:26;-5.98;81.45
69715;HTU21D;56981;53.532;49.398;2023-11-19T14:22:52;-6.06;81.05
69715;HTU21D;56981;53.532;49.398;2023-11-19T14:25:18;-6.13;81.44
69715;HTU21D;56981;53.532;49.398;2023-11-19T14:27:45;-6.19;81.59
69715;HTU21D;56981;53.532;49.398;2023-11-19T14:30:14;-6.21;81.85
69715;HTU21D;56981;53.532;49.398;2023-11-19T14:32:42;-6.24;82.01
69715;HTU21D;56981;53.532;49.398;2023-11-19T14:35:16;-6.31;81.94
69715;HTU21D;56981;53.532;49.398;2023-11-19T14:37:42;-6.34;81.88
69715;HTU21D;56981;53.532;49.398;2023-11-19T14:40:09;-6.41;82.05
69715;HTU21D;56981;53.532;49.398;2023-11-19T14:42:37;-6.44;82.05
69715;HTU21D;56981;53.532;49.398;2023-11-19T14:45:05;-6.44;82.04
69715;HTU21D;56981;53.532;49.398;2023-11-19T14:47:35;-6.45;81.88
69715;HTU21D;56981;53.532;49.398;2023-11-19T14:50:01;-6.50;82.00
69715;HTU21D;56981;53.532;49.398;2023-11-19T14:52:27;-6.49;82.13
69715;HTU21D;56981;53.532;49.398;2023-11-19T14:54:54;-6.46;81.79
69715;HTU21D;56981;53.532;49.398;2023-11-19T14:57:22;-6.48;81.63
69715;HTU21D;56981;53.532;49.398;2023-11-19T14:59:48;-6.58;81.65
69715;HTU21D;56981;53.532;49.398;2023-11-19T15:02:14;-6.61;82.08
69715;HTU21D;56981;53.532;49.398;2023-11-19T15:04:44;-6.59;82.38
69715;HTU21D;56981;53.532;49.398;2023-11-19T15:07:10;-6.60;82.32
69715;HTU21D;56981;53.532;49.398;2023-11-19T15:09:36;-6.61;82.58
69715;HTU21D;56981;53.532;49.398;2023-11-19T15:12:04;-6.58;82.54
69715;HTU21D;56981;53.532;49.398;2023-11-19T15:14:30;-6.53;82.38
69715;HTU21D;56981;53.532;49.398;2023-11-19T15:16:59;-6.47;81.88
69715;HTU21D;56981;53.532;49.398;2023-11-19T15:19:26;-6.45;82.23
69715;HTU21D;56981;53.532;49.398;2023-11-19T15:21:53;-6.48;82.07
69715;HTU21D;56981;53.532;49.398;2023-11-19T15:24:20;-6.45;82.20